Francisco Ayres, Brazil
Current Conditions -  °F | °C
As of 5:00 PM on Friday 21 Nov 2014 (Local Time) from SBTE Reporting Station
Few Clouds Few Clouds  
Wind Chill: 95°   Ceiling: Unl
Heat Index: 97°   Visibility: 6mi
Dew Point: 64°   Wind: 3mph
Humidity: 36%   Direction: 120°ESE
Pressure: 29.74"   Gusts: NA
Location:  6.62°S, 42.69°W
Report Text: SBTE 212000Z 12003KT 9999 FEW025 35/18 Q1007
Loading
Personal Weather Stations






























Interactive Weather Map New forecast layout! Learn more

10-Day Weather Forecast

Advertisements
Track Severe Weather on mobile